Time;durP1;ratioP1;P1;durP2;ratioP2;P2;SDS_P1;SDS_P2;PMS_P1;PMS_P2;Temp;Humidity;BMP_temperature;BMP_pressure;BME280_temperature;BME280_humidity;BME280_pressure;Samples;Min_cycle;Max_cycle;Signal;HPM_P1;HPM_P2
2022/06/27 00:00:34;;;;;;;32.37;10.90;;;;;;;35.22;49.49;101168.44;5132066;28;20419;-67
2022/06/27 00:03:00;;;;;;;24.37;10.83;;;;;;;35.22;49.19;101163.06;5131916;28;20423;-67
2022/06/27 00:05:26;;;;;;;18.77;9.20;;;;;;;35.28;49.35;101173.53;5131996;28;20447;-68
2022/06/27 00:07:52;;;;;;;15.13;8.80;;;;;;;35.37;48.80;101171.06;5131881;28;20465;-67
2022/06/27 00:10:18;;;;;;;22.93;10.47;;;;;;;35.41;48.99;101168.59;5114799;28;20826;-67
2022/06/27 00:12:44;;;;;;;15.30;8.40;;;;;;;35.11;49.56;101173.13;5133649;27;20398;-67
2022/06/27 00:15:11;;;;;;;19.57;7.30;;;;;;;35.00;49.76;101166.97;5133283;27;20521;-67
2022/06/27 00:17:39;;;;;;;19.03;9.00;;;;;;;35.12;49.94;101163.94;5131955;28;20430;-67
2022/06/27 00:20:06;;;;;;;22.70;11.43;;;;;;;35.20;49.62;101170.63;5131915;28;20446;-67
2022/06/27 00:22:33;;;;;;;18.50;12.10;;;;;;;35.23;49.76;101162.75;5132567;28;20402;-69
2022/06/27 00:24:59;;;;;;;24.63;12.17;;;;;;;35.23;49.50;101157.38;5116891;27;20410;-69
2022/06/27 00:27:25;;;;;;;21.10;12.50;;;;;;;35.11;49.50;101159.63;5135990;27;20446;-69
2022/06/27 00:29:51;;;;;;;18.30;12.83;;;;;;;35.05;50.14;101155.38;5135610;27;20443;-69
2022/06/27 00:32:18;;;;;;;29.00;13.27;;;;;;;35.17;49.36;101153.13;5135610;27;20856;-69
2022/06/27 00:34:44;;;;;;;23.37;13.90;;;;;;;35.07;49.48;101147.78;5135651;27;20422;-67
2022/06/27 00:37:11;;;;;;;25.93;16.33;;;;;;;34.97;50.04;101140.56;5135447;27;20466;-69
2022/06/27 00:39:37;;;;;;;22.80;14.90;;;;;;;34.99;50.15;101149.19;5135626;27;20462;-67
2022/06/27 00:42:04;;;;;;;30.80;15.23;;;;;;;35.12;49.64;101138.88;5118383;27;20419;-67
2022/06/27 00:44:31;;;;;;;25.13;15.50;;;;;;;35.21;49.61;101145.28;5136596;27;20399;-67
2022/06/27 00:46:57;;;;;;;28.13;17.90;;;;;;;35.18;49.44;101137.75;5135204;27;20418;-67
2022/06/27 00:49:24;;;;;;;29.57;15.80;;;;;;;35.01;50.06;101127.34;5134865;27;21061;-67
2022/06/27 00:51:51;;;;;;;25.67;16.90;;;;;;;34.98;50.07;101133.28;5118156;27;20427;-67
2022/06/27 00:54:18;;;;;;;22.80;13.53;;;;;;;35.16;49.49;101132.63;5114760;28;20420;-69
2022/06/27 00:56:44;;;;;;;25.50;12.60;;;;;;;35.26;49.48;101129.84;5131622;27;20447;-69
2022/06/27 00:59:10;;;;;;;36.77;11.90;;;;;;;35.31;49.50;101133.63;5131513;27;20458;-69
2022/06/27 01:01:37;;;;;;;23.93;10.80;;;;;;;35.30;49.41;101127.41;5114471;28;20420;-69
2022/06/27 01:04:03;;;;;;;18.67;8.77;;;;;;;35.24;48.72;101123.16;5114117;28;20463;-69
2022/06/27 01:06:29;;;;;;;21.07;9.50;;;;;;;35.33;49.10;101115.25;5114407;28;20423;-69
2022/06/27 01:08:56;;;;;;;25.43;9.53;;;;;;;35.42;48.64;101114.41;5131422;27;20463;-69
2022/06/27 01:11:22;;;;;;;20.37;8.83;;;;;;;35.47;48.84;101122.44;5097207;28;20942;-69
2022/06/27 01:13:49;;;;;;;23.37;10.27;;;;;;;35.49;48.71;101119.47;5114279;28;20570;-69
2022/06/27 01:16:16;;;;;;;25.80;12.73;;;;;;;35.52;48.39;101117.00;5131273;27;20416;-69
2022/06/27 01:18:43;;;;;;;22.77;12.67;;;;;;;35.50;49.09;101121.88;5114255;28;20408;-69
2022/06/27 01:21:19;;;;;;;17.70;11.87;;;;;;;35.50;48.60;101111.09;5114083;28;20404;-69
2022/06/27 01:23:46;;;;;;;22.73;12.10;;;;;;;35.47;48.75;101106.25;5098352;28;20423;-67
2022/06/27 01:26:12;;;;;;;27.40;20.77;;;;;;;35.13;49.04;101106.22;5131158;27;20912;-69
2022/06/27 01:28:39;;;;;;;29.80;22.90;;;;;;;35.16;49.43;101105.66;5115461;28;20758;-69
2022/06/27 01:31:05;;;;;;;52.17;30.73;;;;;;;35.19;49.36;101104.31;5115538;28;20752;-69
2022/06/27 01:33:31;;;;;;;36.50;27.70;;;;;;;34.92;50.15;101097.47;5113812;28;20420;-67
2022/06/27 01:38:42;;;;;;;39.50;26.00;;;;;;;35.12;49.50;101093.03;5115050;28;20403;-67
2022/06/27 01:41:08;;;;;;;39.37;28.13;;;;;;;35.16;49.34;101091.38;5113901;28;20459;-67
2022/06/27 01:43:35;;;;;;;41.47;27.50;;;;;;;35.16;49.30;101091.38;5096705;28;20415;-67
2022/06/27 01:46:01;;;;;;;38.00;26.83;;;;;;;35.03;49.32;101092.81;5113602;28;20885;-69
2022/06/27 01:48:28;;;;;;;52.73;30.90;;;;;;;35.01;49.69;101086.91;5130469;27;20482;-69
2022/06/27 01:50:58;;;;;;;33.07;26.47;;;;;;;34.87;50.31;101094.00;5113919;28;20479;-67
2022/06/27 01:53:26;;;;;;;50.80;29.30;;;;;;;34.90;50.07;101088.03;5120852;27;20407;-67
2022/06/27 01:55:53;;;;;;;33.47;26.60;;;;;;;34.89;49.95;101089.13;5134358;27;20444;-68
2022/06/27 01:58:19;;;;;;;32.73;27.27;;;;;;;34.96;50.01;101085.03;5133936;27;20415;-67
2022/06/27 02:00:45;;;;;;;38.00;26.80;;;;;;;35.01;50.05;101076.13;5133929;27;20503;-68
2022/06/27 02:03:11;;;;;;;30.80;26.67;;;;;;;35.00;49.54;101086.09;5135054;27;20399;-67
2022/06/27 02:05:38;;;;;;;35.13;23.57;;;;;;;35.00;49.51;101080.72;5116667;27;20407;-67
2022/06/27 02:08:04;;;;;;;31.37;23.93;;;;;;;35.06;49.23;101083.38;5135264;27;20474;-67
2022/06/27 02:10:31;;;;;;;22.30;14.13;;;;;;;35.10;49.61;101074.44;5116658;27;20412;-67
2022/06/27 02:12:57;;;;;;;18.77;10.80;;;;;;;35.09;49.04;101072.00;5133693;27;20415;-67
2022/06/27 02:15:23;;;;;;;19.33;11.23;;;;;;;35.20;48.96;101076.25;5133562;27;20437;-67
2022/06/27 02:17:49;;;;;;;18.63;12.37;;;;;;;34.95;49.33;101066.47;5135267;27;20391;-68
2022/06/27 02:20:16;;;;;;;20.30;11.17;;;;;;;35.19;49.10;101067.34;5116299;27;20417;-67
2022/06/27 02:22:42;;;;;;;19.87;9.93;;;;;;;35.25;49.25;101068.94;5134845;27;20399;-67
2022/06/27 02:25:10;;;;;;;34.40;13.07;;;;;;;35.35;48.94;101070.72;5116463;27;20504;-67
2022/06/27 02:27:36;;;;;;;19.50;14.17;;;;;;;35.44;48.65;101076.34;5133647;27;20930;-67
2022/06/27 02:30:04;;;;;;;15.90;10.43;;;;;;;35.30;49.15;101054.59;5133350;27;20415;-67
2022/06/27 02:32:31;;;;;;;22.67;10.23;;;;;;;35.41;48.54;101058.00;5133296;27;20507;-67
2022/06/27 02:34:58;;;;;;;18.00;10.27;;;;;;;35.29;49.40;101055.66;5133223;27;20462;-67
2022/06/27 02:37:25;;;;;;;18.20;10.33;;;;;;;35.24;49.07;101053.84;5133186;27;20407;-67
2022/06/27 02:39:54;;;;;;;26.47;11.00;;;;;;;35.39;48.66;101049.38;5133166;27;21028;-67
2022/06/27 02:42:21;;;;;;;20.20;11.27;;;;;;;35.45;48.66;101053.66;5133011;27;20435;-67
2022/06/27 02:44:48;;;;;;;22.90;10.53;;;;;;;35.36;48.58;101055.34;5133446;27;20419;-69
2022/06/27 02:47:19;;;;;;;24.10;12.47;;;;;;;35.31;48.68;101058.91;5115381;27;20796;-69
2022/06/27 02:49:45;;;;;;;38.17;12.67;;;;;;;35.30;48.84;101060.00;5133938;27;20898;-67
2022/06/27 02:52:19;;;;;;;24.33;10.90;;;;;;;35.28;48.61;101054.84;5115874;27;20451;-67
2022/06/27 02:55:02;;;;;;;30.70;12.70;;;;;;;35.36;48.99;101060.72;5133110;27;20461;-67
2022/06/27 02:57:43;;;;;;;19.80;9.87;;;;;;;35.22;49.26;101061.38;5115791;27;20419;-67
2022/06/27 03:00:09;;;;;;;19.73;11.17;;;;;;;35.28;49.16;101059.44;5132645;27;20873;-67
2022/06/27 03:02:37;;;;;;;20.77;9.20;;;;;;;35.12;49.48;101060.69;5132794;27;20923;-67
2022/06/27 03:05:04;;;;;;;34.73;10.83;;;;;;;34.94;49.34;101057.56;5132495;27;20858;-69
2022/06/27 03:07:35;;;;;;;13.23;8.53;;;;;;;34.83;49.16;101058.69;5132616;27;20543;-67
2022/06/27 03:10:03;;;;;;;24.30;9.70;;;;;;;35.02;48.86;101048.06;5132626;27;20510;-67
2022/06/27 03:12:29;;;;;;;20.77;9.00;;;;;;;35.04;48.88;101051.28;5132456;27;20799;-67
2022/06/27 03:14:55;;;;;;;15.87;8.73;;;;;;;35.10;48.36;101049.34;5132578;27;20502;-69
2022/06/27 03:17:21;;;;;;;21.80;8.80;;;;;;;35.07;48.68;101041.84;5132406;27;20422;-69
2022/06/27 03:19:50;;;;;;;18.53;12.17;;;;;;;35.09;48.37;101036.97;5134067;27;20418;-69
2022/06/27 03:22:17;;;;;;;14.40;8.00;;;;;;;35.14;48.80;101032.34;5134097;27;20420;-69
2022/06/27 03:24:43;;;;;;;21.63;10.13;;;;;;;35.22;48.47;101026.31;5132384;27;20471;-67
2022/06/27 03:27:10;;;;;;;36.10;12.23;;;;;;;35.28;48.09;101027.09;5132355;27;20419;-67
2022/06/27 03:29:37;;;;;;;18.33;10.63;;;;;;;34.84;49.15;101019.88;5132229;27;20439;-69
2022/06/27 03:32:04;;;;;;;26.93;11.80;;;;;;;34.91;49.30;101019.56;5132339;27;20411;-67
2022/06/27 03:34:30;;;;;;;26.63;9.40;;;;;;;34.76;49.38;101019.69;5115205;27;20443;-67
2022/06/27 03:36:57;;;;;;;26.40;10.67;;;;;;;34.73;49.51;101021.03;5132216;27;20914;-67
2022/06/27 03:39:23;;;;;;;28.17;12.30;;;;;;;34.82;49.39;101030.13;5133791;27;20952;-69
2022/06/27 03:41:50;;;;;;;20.00;10.60;;;;;;;35.02;49.13;101033.78;5115156;28;20918;-69
2022/06/27 03:44:16;;;;;;;29.73;14.40;;;;;;;35.02;49.37;101037.28;5132183;28;20426;-69
2022/06/27 03:46:43;;;;;;;23.43;11.33;;;;;;;34.99;49.82;101032.47;5132136;28;20411;-67
2022/06/27 03:51:54;;;;;;;16.20;9.40;;;;;;;35.11;48.89;101041.00;5133633;28;20479;-67
2022/06/27 03:54:20;;;;;;;23.93;8.73;;;;;;;35.16;48.62;101040.94;5132015;28;20910;-67
2022/06/27 03:56:47;;;;;;;19.80;11.13;;;;;;;35.16;48.55;101030.16;5132012;28;20456;-67
2022/06/27 03:59:13;;;;;;;26.87;11.37;;;;;;;35.20;48.82;101030.41;5132820;27;20411;-67
2022/06/27 04:01:40;;;;;;;19.20;8.90;;;;;;;35.19;49.09;101029.59;5136198;27;20438;-67
2022/06/27 04:04:06;;;;;;;27.47;13.90;;;;;;;34.96;48.73;101036.53;5135952;27;20426;-67
2022/06/27 04:06:33;;;;;;;28.43;10.43;;;;;;;35.08;49.02;101041.56;5136110;27;20438;-67
2022/06/27 04:08:59;;;;;;;21.93;10.40;;;;;;;35.19;48.72;101037.69;5136003;27;20516;-67
2022/06/27 04:11:25;;;;;;;22.90;13.63;;;;;;;35.12;49.01;101034.53;5137472;27;20875;-67
2022/06/27 04:13:51;;;;;;;21.07;11.27;;;;;;;35.07;49.09;101041.84;5135953;27;20782;-69
2022/06/27 04:16:17;;;;;;;15.60;9.80;;;;;;;35.00;49.52;101039.47;5135847;27;20890;-69
2022/06/27 04:18:44;;;;;;;21.03;11.50;;;;;;;35.10;49.40;101041.25;5135672;27;20410;-67
2022/06/27 04:21:10;;;;;;;22.17;10.83;;;;;;;35.17;48.56;101056.06;5135890;27;20403;-68
2022/06/27 04:23:36;;;;;;;22.10;9.57;;;;;;;35.25;48.56;101060.84;5135668;27;20571;-69
2022/06/27 04:26:02;;;;;;;22.83;12.33;;;;;;;35.28;48.85;101054.84;5135790;27;20926;-69
2022/06/27 04:28:28;;;;;;;20.30;11.50;;;;;;;35.37;48.56;101063.16;5137136;27;20454;-67
2022/06/27 04:30:54;;;;;;;21.10;12.17;;;;;;;35.32;48.24;101073.19;5135628;27;20421;-69
2022/06/27 04:33:20;;;;;;;20.03;10.40;;;;;;;35.28;48.39;101081.81;5135629;27;20447;-69
2022/06/27 04:35:47;;;;;;;15.77;9.33;;;;;;;35.24;48.28;101077.31;5135486;27;20411;-69
2022/06/27 04:38:14;;;;;;;14.70;8.90;;;;;;;35.19;48.26;101078.13;5135547;27;20501;-68
2022/06/27 04:40:40;;;;;;;24.63;9.93;;;;;;;35.33;48.15;101074.78;5135520;27;20866;-69
2022/06/27 04:43:08;;;;;;;24.17;10.40;;;;;;;35.39;47.47;101077.16;5137347;27;20410;-69
2022/06/27 04:45:34;;;;;;;17.53;11.27;;;;;;;35.32;48.48;101084.78;5135425;27;20422;-69
2022/06/27 04:48:01;;;;;;;19.70;10.57;;;;;;;35.26;48.74;101091.31;5134932;27;20483;-69
2022/06/27 04:50:28;;;;;;;27.07;13.23;;;;;;;35.37;47.77;101095.53;5135236;27;20503;-67
2022/06/27 04:52:55;;;;;;;19.67;10.90;;;;;;;35.39;47.78;101098.75;5135084;27;20422;-67
2022/06/27 04:55:21;;;;;;;21.23;9.07;;;;;;;35.45;47.85;101104.94;5135217;27;20449;-67
2022/06/27 04:57:48;;;;;;;20.93;11.57;;;;;;;35.47;47.59;101106.25;5135126;27;20507;-67
2022/06/27 05:00:16;;;;;;;15.57;9.30;;;;;;;35.42;47.64;101103.63;5136681;27;20437;-67
2022/06/27 05:02:45;;;;;;;16.03;9.33;;;;;;;35.47;47.77;101111.63;5136773;27;20395;-67
2022/06/27 05:05:11;;;;;;;22.70;10.20;;;;;;;35.38;47.76;101109.81;5134897;27;20415;-68
2022/06/27 05:07:38;;;;;;;21.20;10.47;;;;;;;35.32;48.28;101117.16;5134925;27;21039;-67
2022/06/27 05:10:06;;;;;;;28.67;11.63;;;;;;;35.35;47.96;101119.25;5134427;27;20411;-67
2022/06/27 05:12:32;;;;;;;24.20;11.93;;;;;;;35.33;48.18;101120.66;5134798;27;20438;-67
2022/06/27 05:14:58;;;;;;;28.57;13.40;;;;;;;35.31;48.70;101114.72;5136419;27;20891;-67
2022/06/27 05:17:24;;;;;;;25.63;10.67;;;;;;;35.21;48.31;101121.00;5136424;27;20403;-67
2022/06/27 05:19:51;;;;;;;14.67;10.30;;;;;;;35.27;48.34;101119.88;5136290;27;20469;-67
2022/06/27 05:22:18;;;;;;;21.10;11.17;;;;;;;35.23;48.39;101130.41;5135019;27;20442;-67
2022/06/27 05:24:44;;;;;;;17.70;11.50;;;;;;;35.14;48.77;101136.69;5134557;27;20571;-67
2022/06/27 05:27:10;;;;;;;21.20;10.77;;;;;;;35.10;49.25;101136.44;5134484;27;20414;-67
2022/06/27 05:29:37;;;;;;;18.53;13.00;;;;;;;35.30;49.11;101137.38;5134434;27;20458;-67
2022/06/27 05:32:04;;;;;;;20.70;11.13;;;;;;;35.36;48.64;101145.16;5134620;27;20425;-67
2022/06/27 05:34:30;;;;;;;25.00;10.93;;;;;;;35.44;48.16;101160.78;5132180;27;20460;-67
2022/06/27 05:36:57;;;;;;;42.27;17.97;;;;;;;35.41;48.67;101155.91;5124320;27;20961;-67
2022/06/27 05:39:23;;;;;;;29.20;12.63;;;;;;;35.37;48.94;101156.75;5122393;27;20468;-68
2022/06/27 05:41:50;;;;;;;17.80;9.57;;;;;;;35.28;48.42;101157.34;5132925;27;20662;-68
2022/06/27 05:44:16;;;;;;;18.00;10.87;;;;;;;35.37;48.29;101148.66;5134193;27;20422;-65
2022/06/27 05:46:42;;;;;;;18.70;7.83;;;;;;;35.34;47.75;101154.63;5134125;27;20442;-65
2022/06/27 05:49:11;;;;;;;18.97;11.33;;;;;;;35.25;48.24;101160.63;5133770;27;21118;-64
2022/06/27 05:51:38;;;;;;;16.73;10.00;;;;;;;35.17;48.73;101163.09;5135657;27;20458;-65
2022/06/27 05:54:05;;;;;;;18.00;9.87;;;;;;;35.27;48.81;101166.53;5113439;28;20416;-65
2022/06/27 05:56:33;;;;;;;22.70;11.80;;;;;;;35.38;48.68;101174.56;5113963;28;20404;-65
2022/06/27 05:59:02;;;;;;;21.40;11.30;;;;;;;35.41;48.58;101172.09;5116377;27;20927;-65
2022/06/27 06:01:29;;;;;;;25.77;12.37;;;;;;;35.45;48.14;101178.56;5113368;28;20433;-65
2022/06/27 06:03:56;;;;;;;25.90;11.57;;;;;;;35.30;48.58;101181.34;5120886;27;20411;-66
2022/06/27 06:06:24;;;;;;;41.37;12.43;;;;;;;35.40;48.64;101180.47;5122734;27;20503;-66
2022/06/27 06:08:51;;;;;;;21.80;10.57;;;;;;;35.37;48.42;101181.03;5124017;27;20449;-67
2022/06/27 06:11:18;;;;;;;23.63;12.50;;;;;;;35.43;48.47;101190.75;5122358;27;20416;-66
2022/06/27 06:13:45;;;;;;;31.53;10.57;;;;;;;35.31;48.65;101196.44;5133682;27;20435;-65
2022/06/27 06:16:11;;;;;;;28.23;10.33;;;;;;;35.37;48.43;101187.25;5133219;27;20419;-65
2022/06/27 06:18:38;;;;;;;19.37;11.00;;;;;;;35.50;48.00;101200.13;5124294;27;20420;-65
2022/06/27 06:21:04;;;;;;;32.23;11.93;;;;;;;35.49;48.37;101195.00;5109077;22;20496;-66
2022/06/27 06:23:32;;;;;;;25.17;12.03;;;;;;;35.35;48.99;101196.69;5061487;28;20407;-66
2022/06/27 06:25:59;;;;;;;28.50;11.57;;;;;;;35.40;48.11;101204.75;5067742;28;20414;-65
2022/06/27 18:19:25;;;;;;;24.93;10.43;;;;;;;37.42;44.14;101140.69;5297860;23;20511;-67
2022/06/27 18:21:51;;;;;;;18.70;9.23;;;;;;;37.48;43.75;101146.81;4841427;29;20445;-66
2022/06/27 18:24:18;;;;;;;19.30;8.67;;;;;;;37.55;43.88;101142.63;4841477;29;20440;-65
2022/06/27 18:26:44;;;;;;;24.77;11.50;;;;;;;37.61;44.07;101137.91;4841410;29;20817;-68
2022/06/27 18:29:12;;;;;;;20.20;11.23;;;;;;;37.56;44.71;101144.22;4841439;29;20555;-65
2022/06/27 18:31:38;;;;;;;17.33;10.40;;;;;;;37.58;44.22;101142.03;4841250;29;20458;-65
2022/06/27 18:34:04;;;;;;;25.27;10.57;;;;;;;37.54;43.88;101141.00;4841434;29;20987;-67
2022/06/27 18:36:31;;;;;;;21.00;9.80;;;;;;;37.45;44.16;101134.69;4841172;29;20436;-67
2022/06/27 18:38:58;;;;;;;22.90;11.77;;;;;;;37.48;44.19;101138.69;4841410;29;20441;-65
2022/06/27 18:41:24;;;;;;;17.43;8.70;;;;;;;37.47;44.14;101140.59;4842547;29;20428;-65
2022/06/27 18:43:52;;;;;;;19.70;10.07;;;;;;;37.53;44.14;101144.81;4842866;29;20436;-65
2022/06/27 18:46:20;;;;;;;28.60;11.30;;;;;;;37.45;44.15;101142.81;4840302;29;20444;-65
2022/06/27 18:48:47;;;;;;;35.40;15.27;;;;;;;37.48;43.38;101152.22;4838625;29;20497;-65
2022/06/27 18:51:13;;;;;;;23.07;13.57;;;;;;;37.50;43.44;101150.81;4840710;29;20440;-65
2022/06/27 18:53:44;;;;;;;28.20;15.03;;;;;;;37.57;43.30;101158.56;4842005;29;20488;-65
2022/06/27 18:56:10;;;;;;;21.23;11.20;;;;;;;37.54;43.38;101161.88;4840716;29;20953;-66
2022/06/27 18:58:37;;;;;;;29.00;12.43;;;;;;;37.53;43.52;101161.06;4840604;29;20433;-65
2022/06/27 19:01:06;;;;;;;26.77;12.37;;;;;;;37.55;43.73;101166.97;4840334;29;20448;-65
2022/06/27 19:03:33;;;;;;;17.03;11.23;;;;;;;37.60;43.85;101172.31;4840703;29;20803;-65
2022/06/27 19:06:02;;;;;;;20.00;9.77;;;;;;;37.62;43.85;101175.50;4840807;29;20433;-65
2022/06/27 19:08:28;;;;;;;19.23;10.70;;;;;;;37.62;43.45;101172.81;4840315;29;20593;-65
2022/06/27 19:10:55;;;;;;;44.43;12.27;;;;;;;37.60;43.57;101169.59;4840505;29;20466;-65
2022/06/27 19:13:22;;;;;;;33.30;14.20;;;;;;;37.64;43.66;101165.22;4840684;29;20461;-65
2022/06/27 19:15:48;;;;;;;29.60;15.57;;;;;;;37.57;43.53;101158.56;4840480;29;20515;-70
2022/06/27 19:18:17;;;;;;;27.63;11.83;;;;;;;37.31;43.96;101161.63;4837487;29;20577;-67
2022/06/27 19:20:44;;;;;;;27.30;12.30;;;;;;;37.35;43.72;101170.81;4823266;29;20544;-65
2022/06/27 19:23:11;;;;;;;17.20;9.97;;;;;;;37.40;43.96;101183.47;4822175;29;21013;-66
2022/06/27 19:25:38;;;;;;;18.23;11.57;;;;;;;37.40;44.20;101186.19;4823606;29;20449;-65
2022/06/27 19:28:04;;;;;;;22.20;13.10;;;;;;;37.32;44.47;101190.34;4821931;29;20473;-65
2022/06/27 19:30:31;;;;;;;19.63;12.47;;;;;;;37.28;44.19;101197.41;4823147;29;20440;-65
2022/06/27 19:32:57;;;;;;;26.77;12.30;;;;;;;37.35;44.09;101197.06;4820462;29;20444;-65
2022/06/27 19:35:23;;;;;;;27.40;13.87;;;;;;;37.36;44.14;101198.69;4822367;29;20516;-64
2022/06/27 19:37:49;;;;;;;21.67;15.90;;;;;;;37.35;43.87;101203.28;4834129;29;20800;-65
2022/06/27 19:40:16;;;;;;;30.93;13.00;;;;;;;37.41;44.18;101200.50;4820204;29;20524;-65
2022/06/27 19:42:42;;;;;;;31.13;15.90;;;;;;;37.45;44.06;101190.72;4822304;29;20433;-66
2022/06/27 19:45:09;;;;;;;33.27;15.03;;;;;;;37.48;44.01;101196.31;4822350;29;20445;-65
2022/06/27 19:47:35;;;;;;;38.90;21.40;;;;;;;37.53;44.27;101201.66;4823849;29;20414;-65
2022/06/27 19:50:04;;;;;;;33.43;17.77;;;;;;;37.52;44.12;101210.88;4836771;29;20465;-65
2022/06/27 19:52:30;;;;;;;31.43;17.10;;;;;;;37.56;43.84;101214.59;4822207;29;20433;-65
2022/06/27 19:54:58;;;;;;;28.60;18.50;;;;;;;37.57;44.15;101228.94;4837319;29;20417;-65
2022/06/27 19:57:29;;;;;;;30.03;15.90;;;;;;;37.57;43.65;101237.88;4823848;29;20405;-65
2022/06/27 19:59:56;;;;;;;31.00;17.20;;;;;;;37.62;43.33;101240.47;4823018;29;20822;-65
2022/06/27 20:02:23;;;;;;;29.93;16.50;;;;;;;37.60;43.58;101236.47;4822233;29;20449;-65
2022/06/27 20:04:54;;;;;;;27.90;15.63;;;;;;;37.62;43.58;101232.34;4822542;29;20401;-65
2022/06/27 20:07:26;;;;;;;21.60;12.30;;;;;;;37.60;43.52;101242.69;4826055;29;20439;-65
2022/06/27 20:09:57;;;;;;;30.07;14.60;;;;;;;37.57;43.66;101239.78;4855045;29;20453;-65
2022/06/27 20:12:24;;;;;;;22.70;14.63;;;;;;;37.51;43.78;101247.16;4841892;29;20400;-65
2022/06/27 20:14:50;;;;;;;25.77;16.40;;;;;;;37.48;44.22;101255.84;4852699;29;20951;-65
2022/06/27 20:17:16;;;;;;;31.77;16.13;;;;;;;37.53;43.63;101265.81;4823626;29;20420;-65
2022/06/27 20:19:43;;;;;;;34.07;13.80;;;;;;;37.54;43.90;101267.41;4823298;29;21089;-65
2022/06/27 20:22:12;;;;;;;22.80;13.00;;;;;;;37.54;43.84;101262.00;4822286;29;20537;-65
2022/06/27 20:24:39;;;;;;;28.57;15.30;;;;;;;37.53;43.84;101258.50;4822207;29;20513;-66
2022/06/27 20:27:06;;;;;;;25.40;12.73;;;;;;;37.48;43.98;101252.34;4822105;29;20494;-65
2022/06/27 20:29:33;;;;;;;23.37;14.80;;;;;;;37.45;43.94;101251.03;4823290;29;20556;-67
2022/06/27 20:32:00;;;;;;;28.57;14.63;;;;;;;37.50;43.97;101242.81;4820913;29;20433;-67
2022/06/27 20:34:26;;;;;;;25.37;13.90;;;;;;;37.52;44.15;101231.72;4823419;29;20462;-65
2022/06/27 20:36:52;;;;;;;26.23;16.40;;;;;;;37.48;43.61;101236.13;4821946;29;20425;-65
2022/06/27 20:39:19;;;;;;;24.90;14.83;;;;;;;37.49;43.71;101235.00;4827839;29;20428;-65
2022/06/27 20:41:45;;;;;;;24.33;14.27;;;;;;;37.51;44.03;101249.88;4824649;29;20933;-65
2022/06/27 20:44:11;;;;;;;20.97;11.03;;;;;;;37.49;43.62;101252.06;4825416;29;20434;-66
2022/06/27 20:46:38;;;;;;;22.33;12.43;;;;;;;37.49;43.64;101260.16;4824979;29;20441;-66
2022/06/27 20:49:04;;;;;;;20.10;10.73;;;;;;;37.50;43.62;101256.38;4824959;29;20993;-65
2022/06/27 20:51:31;;;;;;;23.07;8.73;;;;;;;37.49;43.62;101256.66;4825479;29;20430;-66
2022/06/27 20:53:57;;;;;;;15.23;9.97;;;;;;;37.52;43.59;101262.31;4809937;29;20807;-65
2022/06/27 20:56:24;;;;;;;23.67;13.10;;;;;;;37.55;43.69;101263.59;4824989;29;20866;-65
2022/06/27 20:58:51;;;;;;;28.83;12.20;;;;;;;37.57;43.82;101270.34;4809983;29;20441;-65
2022/06/27 21:01:19;;;;;;;13.10;9.00;;;;;;;37.55;43.83;101269.03;4824976;29;20508;-69
2022/06/27 21:03:46;;;;;;;18.57;10.43;;;;;;;37.51;44.12;101268.00;4825142;29;20489;-65
2022/06/27 21:06:12;;;;;;;16.33;9.47;;;;;;;37.56;43.93;101266.00;4840039;29;20418;-65
2022/06/27 21:14:07;;;;;;;21.43;11.20;;;;;;;37.53;44.07;101263.09;4825890;29;20408;-65
2022/06/27 21:16:33;;;;;;;19.87;12.57;;;;;;;37.48;44.13;101260.47;4840041;29;20939;-65
2022/06/27 21:19:00;;;;;;;20.10;12.80;;;;;;;37.40;44.36;101272.75;4826111;29;20437;-65
2022/06/27 21:21:26;;;;;;;28.93;14.90;;;;;;;37.46;44.46;101270.78;4824051;29;20504;-65
2022/06/27 21:23:52;;;;;;;21.73;13.13;;;;;;;37.52;44.02;101278.53;4838318;29;20450;-66
2022/06/27 21:26:18;;;;;;;22.87;14.53;;;;;;;37.53;43.85;101288.28;4822270;29;20437;-67
2022/06/27 21:28:44;;;;;;;30.13;11.37;;;;;;;37.58;44.06;101288.19;4845076;29;20472;-67
2022/06/27 21:31:10;;;;;;;20.80;13.97;;;;;;;37.54;44.12;101284.47;4822495;29;20445;-67
2022/06/27 21:33:37;;;;;;;30.53;15.50;;;;;;;37.52;44.15;101292.06;4822382;29;20822;-66
2022/06/27 21:36:03;;;;;;;23.30;12.53;;;;;;;37.53;43.82;101288.28;4824375;29;20436;-66
2022/06/27 21:38:29;;;;;;;21.77;10.17;;;;;;;37.53;44.23;101290.97;4808071;29;20456;-67
2022/06/27 21:40:56;;;;;;;20.77;13.30;;;;;;;37.55;44.04;101277.13;4823823;29;20433;-66
2022/06/27 21:43:22;;;;;;;22.07;12.20;;;;;;;37.50;44.24;101286.13;4822393;29;20432;-68
2022/06/27 21:45:48;;;;;;;19.80;12.80;;;;;;;37.49;44.37;101289.94;4820647;29;20509;-68
2022/06/27 21:48:14;;;;;;;27.93;14.63;;;;;;;37.48;44.51;101292.94;4820631;29;20584;-68
2022/06/27 21:50:42;;;;;;;25.00;13.87;;;;;;;37.44;44.57;101286.50;4835942;29;20806;-68
2022/06/27 21:53:09;;;;;;;19.40;10.70;;;;;;;37.46;44.83;101295.94;4821953;29;20406;-68
2022/06/27 21:55:36;;;;;;;27.23;13.97;;;;;;;37.41;44.56;101296.03;4822262;29;20414;-68
2022/06/27 21:58:02;;;;;;;35.43;15.17;;;;;;;37.38;44.43;101296.59;4822574;29;20455;-68
2022/06/27 22:00:32;;;;;;;16.90;10.73;;;;;;;37.40;44.49;101299.81;4823992;29;20433;-68
2022/06/27 22:02:59;;;;;;;21.50;10.40;;;;;;;37.38;44.71;101299.28;4823931;29;20497;-68
2022/06/27 22:05:26;;;;;;;14.43;10.87;;;;;;;37.32;44.58;101306.66;4824041;29;20425;-68
2022/06/27 22:07:54;;;;;;;25.03;11.10;;;;;;;37.36;44.47;101301.50;4839306;29;20429;-67
2022/06/27 22:10:20;;;;;;;27.87;10.97;;;;;;;37.43;44.49;101306.53;4822077;29;20453;-67
2022/06/27 22:12:47;;;;;;;19.03;11.20;;;;;;;37.47;44.64;101304.88;4820506;29;20822;-68
2022/06/27 22:15:16;;;;;;;16.33;11.13;;;;;;;37.36;44.43;101304.19;4805578;29;20430;-68
2022/06/27 22:17:42;;;;;;;13.67;8.47;;;;;;;37.32;44.59;101308.53;4805835;29;20501;-68
2022/06/27 22:20:11;;;;;;;16.50;9.60;;;;;;;37.34;44.51;101304.50;4820505;29;20534;-68
2022/06/27 22:22:38;;;;;;;19.37;9.13;;;;;;;37.29;44.37;101301.81;4820725;29;20473;-66
2022/06/27 22:25:05;;;;;;;19.53;10.63;;;;;;;37.37;44.60;101305.81;4821015;29;20447;-66
2022/06/27 22:27:32;;;;;;;27.67;12.33;;;;;;;37.33;44.51;101302.88;4815382;29;20449;-66
2022/06/27 22:29:58;;;;;;;22.33;10.67;;;;;;;37.18;44.83;101303.06;4820456;29;20469;-66
2022/06/27 22:32:25;;;;;;;22.77;14.47;;;;;;;37.18;44.89;101315.78;4820589;29;20422;-66
2022/06/27 22:34:51;;;;;;;22.60;11.50;;;;;;;37.25;45.05;101306.19;4820465;29;20484;-67
2022/06/27 22:37:17;;;;;;;26.37;12.03;;;;;;;37.21;44.70;101304.38;4820644;29;20598;-67
2022/06/27 22:39:44;;;;;;;23.30;11.90;;;;;;;37.23;44.98;101310.31;4831062;29;20938;-67
2022/06/27 22:42:10;;;;;;;22.20;10.87;;;;;;;37.22;45.13;101308.69;4806696;29;20429;-65
2022/06/27 22:44:37;;;;;;;28.10;12.43;;;;;;;37.24;44.74;101304.59;4805210;29;20456;-65
2022/06/27 22:47:05;;;;;;;20.43;11.00;;;;;;;37.27;44.14;101297.81;4805588;29;20407;-67
2022/06/27 22:49:32;;;;;;;21.53;10.10;;;;;;;37.28;44.26;101299.41;4806604;29;20453;-67
2022/06/27 22:51:59;;;;;;;23.90;10.77;;;;;;;37.25;44.68;101300.78;4804913;29;20491;-66
2022/06/27 22:54:29;;;;;;;17.70;9.63;;;;;;;37.32;44.67;101297.72;4820226;29;20510;-66
2022/06/27 22:56:56;;;;;;;16.77;9.53;;;;;;;37.31;44.42;101296.91;4804844;29;20418;-65
2022/06/27 22:59:23;;;;;;;20.93;9.73;;;;;;;37.27;44.47;101295.91;4804917;29;20433;-65
2022/06/27 23:01:50;;;;;;;24.50;10.00;;;;;;;37.30;44.54;101281.78;4804823;29;20482;-65
2022/06/27 23:04:17;;;;;;;18.50;8.30;;;;;;;37.24;44.40;101288.38;4804215;29;20433;-66
2022/06/27 23:06:45;;;;;;;20.50;10.13;;;;;;;37.12;44.96;101286.09;4806235;29;20444;-66
2022/06/27 23:09:12;;;;;;;21.10;7.80;;;;;;;37.08;44.69;101279.66;4804613;29;20467;-66
2022/06/27 23:11:38;;;;;;;15.93;8.57;;;;;;;37.03;45.06;101277.03;4806295;29;20417;-66